sensor_id;sensor_type;location;lat;lon;timestamp;pressure;altitude;pressure_sealevel;temperature;humidity
36380;BME280;22411;53.016;18.632;2023-03-25T00:02:10;99456.69;;;8.55;100.00
36380;BME280;22411;53.016;18.632;2023-03-25T00:04:37;99453.72;;;8.49;100.00
36380;BME280;22411;53.016;18.632;2023-03-25T00:07:06;99462.19;;;8.40;100.00
36380;BME280;22411;53.016;18.632;2023-03-25T00:09:33;99467.94;;;8.43;100.00
36380;BME280;22411;53.016;18.632;2023-03-25T00:11:59;99462.63;;;8.33;100.00
36380;BME280;22411;53.016;18.632;2023-03-25T00:14:26;99462.84;;;8.30;100.00
36380;BME280;22411;53.016;18.632;2023-03-25T00:16:53;99462.25;;;8.27;100.00
36380;BME280;22411;53.016;18.632;2023-03-25T00:19:20;99469.19;;;8.26;100.00
36380;BME280;22411;53.016;18.632;2023-03-25T00:21:49;99466.13;;;8.21;100.00
36380;BME280;22411;53.016;18.632;2023-03-25T00:24:16;99456.13;;;8.17;100.00
36380;BME280;22411;53.016;18.632;2023-03-25T00:26:44;99464.81;;;8.16;100.00
36380;BME280;22411;53.016;18.632;2023-03-25T00:29:11;99467.88;;;8.09;100.00
36380;BME280;22411;53.016;18.632;2023-03-25T00:31:38;99472.22;;;8.09;100.00
36380;BME280;22411;53.016;18.632;2023-03-25T00:34:06;99468.81;;;8.08;100.00
36380;BME280;22411;53.016;18.632;2023-03-25T00:36:34;99465.28;;;8.09;100.00
36380;BME280;22411;53.016;18.632;2023-03-25T00:39:07;99460.47;;;8.05;100.00
36380;BME280;22411;53.016;18.632;2023-03-25T00:41:35;99455.53;;;8.02;100.00
36380;BME280;22411;53.016;18.632;2023-03-25T00:44:04;99458.34;;;7.99;100.00
36380;BME280;22411;53.016;18.632;2023-03-25T00:46:31;99455.50;;;7.91;100.00
36380;BME280;22411;53.016;18.632;2023-03-25T00:48:59;99462.53;;;7.89;100.00
36380;BME280;22411;53.016;18.632;2023-03-25T00:51:26;99469.78;;;7.83;100.00
36380;BME280;22411;53.016;18.632;2023-03-25T00:53:57;99470.94;;;7.79;100.00
36380;BME280;22411;53.016;18.632;2023-03-25T00:56:28;99468.81;;;7.73;100.00
36380;BME280;22411;53.016;18.632;2023-03-25T00:58:55;99458.13;;;7.67;100.00
36380;BME280;22411;53.016;18.632;2023-03-25T01:01:24;99455.06;;;7.62;100.00
36380;BME280;22411;53.016;18.632;2023-03-25T01:03:57;99444.38;;;7.55;100.00
36380;BME280;22411;53.016;18.632;2023-03-25T01:06:34;99446.84;;;7.56;100.00
36380;BME280;22411;53.016;18.632;2023-03-25T01:09:03;99439.44;;;7.52;100.00
36380;BME280;22411;53.016;18.632;2023-03-25T01:11:31;99436.97;;;7.50;100.00
36380;BME280;22411;53.016;18.632;2023-03-25T01:14:05;99441.31;;;7.50;100.00
36380;BME280;22411;53.016;18.632;2023-03-25T01:16:32;99434.72;;;7.46;100.00
36380;BME280;22411;53.016;18.632;2023-03-25T01:18:59;99435.41;;;7.48;100.00
36380;BME280;22411;53.016;18.632;2023-03-25T01:21:33;99436.09;;;7.39;100.00
36380;BME280;22411;53.016;18.632;2023-03-25T01:24:05;99430.09;;;7.38;100.00
36380;BME280;22411;53.016;18.632;2023-03-25T01:26:32;99424.25;;;7.36;100.00
36380;BME280;22411;53.016;18.632;2023-03-25T01:28:59;99425.50;;;7.30;100.00
36380;BME280;22411;53.016;18.632;2023-03-25T01:31:25;99422.31;;;7.27;100.00
36380;BME280;22411;53.016;18.632;2023-03-25T01:33:56;99432.88;;;7.24;100.00
36380;BME280;22411;53.016;18.632;2023-03-25T01:36:23;99431.44;;;7.20;100.00
36380;BME280;22411;53.016;18.632;2023-03-25T01:38:50;99438.47;;;7.18;100.00
36380;BME280;22411;53.016;18.632;2023-03-25T01:41:17;99437.84;;;7.14;100.00
36380;BME280;22411;53.016;18.632;2023-03-25T01:44:07;99436.41;;;7.10;100.00
36380;BME280;22411;53.016;18.632;2023-03-25T01:46:36;99429.63;;;7.09;100.00
36380;BME280;22411;53.016;18.632;2023-03-25T01:49:06;99421.19;;;7.07;100.00
36380;BME280;22411;53.016;18.632;2023-03-25T01:51:37;99420.69;;;7.02;100.00
36380;BME280;22411;53.016;18.632;2023-03-25T01:54:05;99416.56;;;6.99;100.00
36380;BME280;22411;53.016;18.632;2023-03-25T01:56:35;99414.22;;;6.96;100.00
36380;BME280;22411;53.016;18.632;2023-03-25T01:59:04;99422.97;;;6.94;100.00
36380;BME280;22411;53.016;18.632;2023-03-25T02:01:32;99423.91;;;6.93;100.00
36380;BME280;22411;53.016;18.632;2023-03-25T02:03:59;99412.91;;;6.91;100.00
36380;BME280;22411;53.016;18.632;2023-03-25T02:06:42;99421.44;;;6.91;100.00
36380;BME280;22411;53.016;18.632;2023-03-25T02:09:11;99423.19;;;6.91;100.00
36380;BME280;22411;53.016;18.632;2023-03-25T02:11:38;99425.03;;;6.89;100.00
36380;BME280;22411;53.016;18.632;2023-03-25T02:14:14;99424.09;;;6.90;100.00
36380;BME280;22411;53.016;18.632;2023-03-25T02:16:50;99423.91;;;6.93;100.00
36380;BME280;22411;53.016;18.632;2023-03-25T02:37:17;99398.16;;;6.80;100.00
36380;BME280;22411;53.016;18.632;2023-03-25T02:40:06;99404.06;;;6.82;100.00
36380;BME280;22411;53.016;18.632;2023-03-25T02:42:55;99410.03;;;6.82;100.00
36380;BME280;22411;53.016;18.632;2023-03-25T02:45:44;99404.25;;;6.79;100.00
36380;BME280;22411;53.016;18.632;2023-03-25T02:48:35;99405.88;;;6.80;100.00
36380;BME280;22411;53.016;18.632;2023-03-25T02:51:23;99395.59;;;6.80;100.00
36380;BME280;22411;53.016;18.632;2023-03-25T02:54:10;99387.28;;;6.76;100.00
36380;BME280;22411;53.016;18.632;2023-03-25T02:56:55;99393.13;;;6.78;100.00
36380;BME280;22411;53.016;18.632;2023-03-25T02:59:42;99386.84;;;6.82;100.00
36380;BME280;22411;53.016;18.632;2023-03-25T03:02:29;99375.41;;;6.87;100.00
36380;BME280;22411;53.016;18.632;2023-03-25T03:05:34;99390.84;;;6.87;100.00
36380;BME280;22411;53.016;18.632;2023-03-25T03:11:11;99385.63;;;6.75;100.00
36380;BME280;22411;53.016;18.632;2023-03-25T03:17:02;99382.25;;;6.62;100.00
36380;BME280;22411;53.016;18.632;2023-03-25T03:25:27;99373.00;;;6.60;100.00
36380;BME280;22411;53.016;18.632;2023-03-25T03:28:05;99367.25;;;6.56;100.00
36380;BME280;22411;53.016;18.632;2023-03-25T03:30:45;99366.94;;;6.48;100.00
36380;BME280;22411;53.016;18.632;2023-03-25T03:33:52;99388.91;;;6.41;100.00
36380;BME280;22411;53.016;18.632;2023-03-25T03:36:28;99387.03;;;6.43;100.00
36380;BME280;22411;53.016;18.632;2023-03-25T03:39:02;99389.22;;;6.36;100.00
36380;BME280;22411;53.016;18.632;2023-03-25T03:41:33;99390.75;;;6.39;100.00
36380;BME280;22411;53.016;18.632;2023-03-25T03:44:13;99390.97;;;6.36;100.00
36380;BME280;22411;53.016;18.632;2023-03-25T03:47:02;99394.47;;;6.35;100.00
36380;BME280;22411;53.016;18.632;2023-03-25T03:49:39;99392.81;;;6.34;100.00
36380;BME280;22411;53.016;18.632;2023-03-25T03:52:18;99397.53;;;6.27;100.00
36380;BME280;22411;53.016;18.632;2023-03-25T03:54:57;99394.16;;;6.26;100.00
36380;BME280;22411;53.016;18.632;2023-03-25T03:57:38;99398.41;;;6.27;100.00
36380;BME280;22411;53.016;18.632;2023-03-25T04:02:40;99399.28;;;6.26;100.00
36380;BME280;22411;53.016;18.632;2023-03-25T04:05:10;99406.19;;;6.26;100.00
36380;BME280;22411;53.016;18.632;2023-03-25T04:07:39;99403.63;;;6.26;100.00
36380;BME280;22411;53.016;18.632;2023-03-25T04:10:19;99415.56;;;6.27;100.00
36380;BME280;22411;53.016;18.632;2023-03-25T04:12:51;99412.91;;;6.28;100.00
36380;BME280;22411;53.016;18.632;2023-03-25T04:15:18;99413.84;;;6.27;100.00
36380;BME280;22411;53.016;18.632;2023-03-25T04:17:45;99412.91;;;6.28;100.00
36380;BME280;22411;53.016;18.632;2023-03-25T04:20:14;99417.94;;;6.30;100.00
36380;BME280;22411;53.016;18.632;2023-03-25T04:22:41;99424.94;;;6.28;100.00
36380;BME280;22411;53.016;18.632;2023-03-25T04:25:11;99421.63;;;6.26;100.00
36380;BME280;22411;53.016;18.632;2023-03-25T04:27:38;99431.94;;;6.26;100.00
36380;BME280;22411;53.016;18.632;2023-03-25T04:30:06;99434.72;;;6.23;100.00
36380;BME280;22411;53.016;18.632;2023-03-25T04:32:33;99429.78;;;6.20;100.00
36380;BME280;22411;53.016;18.632;2023-03-25T04:35:00;99433.28;;;6.19;100.00
36380;BME280;22411;53.016;18.632;2023-03-25T04:37:27;99440.25;;;6.17;100.00
36380;BME280;22411;53.016;18.632;2023-03-25T04:39:53;99443.47;;;6.20;100.00
36380;BME280;22411;53.016;18.632;2023-03-25T04:42:21;99437.50;;;6.20;100.00
36380;BME280;22411;53.016;18.632;2023-03-25T04:44:51;99441.94;;;6.18;100.00
36380;BME280;22411;53.016;18.632;2023-03-25T04:47:20;99435.03;;;6.18;100.00
36380;BME280;22411;53.016;18.632;2023-03-25T04:49:48;99442.53;;;6.21;100.00
36380;BME280;22411;53.016;18.632;2023-03-25T04:52:14;99451.06;;;6.22;100.00
36380;BME280;22411;53.016;18.632;2023-03-25T04:54:41;99456.13;;;6.23;100.00
36380;BME280;22411;53.016;18.632;2023-03-25T04:57:07;99459.31;;;6.27;100.00
36380;BME280;22411;53.016;18.632;2023-03-25T04:59:36;99441.91;;;6.31;100.00
36380;BME280;22411;53.016;18.632;2023-03-25T05:02:04;99437.19;;;6.24;100.00
36380;BME280;22411;53.016;18.632;2023-03-25T05:04:39;99434.19;;;6.31;100.00
36380;BME280;22411;53.016;18.632;2023-03-25T05:07:11;99442.16;;;6.27;100.00
36380;BME280;22411;53.016;18.632;2023-03-25T05:09:38;99449.00;;;6.27;100.00
36380;BME280;22411;53.016;18.632;2023-03-25T05:12:04;99436.06;;;6.28;100.00
36380;BME280;22411;53.016;18.632;2023-03-25T05:14:30;99436.88;;;6.29;100.00
36380;BME280;22411;53.016;18.632;2023-03-25T05:16:56;99440.38;;;6.28;100.00
36380;BME280;22411;53.016;18.632;2023-03-25T05:19:24;99430.69;;;6.32;100.00
36380;BME280;22411;53.016;18.632;2023-03-25T05:21:53;99422.78;;;6.35;100.00
36380;BME280;22411;53.016;18.632;2023-03-25T05:24:21;99417.75;;;6.33;100.00
36380;BME280;22411;53.016;18.632;2023-03-25T05:26:48;99429.06;;;6.43;100.00
36380;BME280;22411;53.016;18.632;2023-03-25T05:29:15;99432.22;;;6.47;100.00
36380;BME280;22411;53.016;18.632;2023-03-25T05:31:42;99444.28;;;6.46;100.00
36380;BME280;22411;53.016;18.632;2023-03-25T05:34:14;99439.84;;;6.48;100.00
36380;BME280;22411;53.016;18.632;2023-03-25T05:36:41;99440.16;;;6.57;100.00
36380;BME280;22411;53.016;18.632;2023-03-25T05:39:09;99433.06;;;6.60;100.00
36380;BME280;22411;53.016;18.632;2023-03-25T05:41:35;99435.63;;;6.60;100.00
36380;BME280;22411;53.016;18.632;2023-03-25T05:44:07;99425.00;;;6.65;100.00
36380;BME280;22411;53.016;18.632;2023-03-25T05:46:34;99429.81;;;6.69;100.00
36380;BME280;22411;53.016;18.632;2023-03-25T05:49:01;99429.41;;;6.75;100.00
36380;BME280;22411;53.016;18.632;2023-03-25T05:51:29;99444.06;;;6.75;100.00
36380;BME280;22411;53.016;18.632;2023-03-25T05:53:58;99446.50;;;6.76;100.00
36380;BME280;22411;53.016;18.632;2023-03-25T05:56:24;99450.28;;;6.84;100.00
36380;BME280;22411;53.016;18.632;2023-03-25T05:58:51;99455.13;;;6.88;100.00
36380;BME280;22411;53.016;18.632;2023-03-25T06:01:19;99455.94;;;6.89;100.00
36380;BME280;22411;53.016;18.632;2023-03-25T06:03:47;99460.09;;;6.91;100.00
36380;BME280;22411;53.016;18.632;2023-03-25T06:06:14;99456.78;;;6.89;100.00
36380;BME280;22411;53.016;18.632;2023-03-25T06:08:48;99455.50;;;6.95;100.00
36380;BME280;22411;53.016;18.632;2023-03-25T06:11:16;99459.53;;;6.99;100.00
36380;BME280;22411;53.016;18.632;2023-03-25T06:13:44;99463.22;;;7.07;100.00
36380;BME280;22411;53.016;18.632;2023-03-25T06:16:21;99454.81;;;7.17;100.00
36380;BME280;22411;53.016;18.632;2023-03-25T06:18:52;99458.41;;;7.27;100.00
36380;BME280;22411;53.016;18.632;2023-03-25T06:21:29;99455.06;;;7.38;100.00
36380;BME280;22411;53.016;18.632;2023-03-25T06:23:58;99451.00;;;7.46;100.00
36380;BME280;22411;53.016;18.632;2023-03-25T06:26:27;99455.38;;;7.57;100.00
36380;BME280;22411;53.016;18.632;2023-03-25T06:28:54;99449.09;;;7.61;100.00
36380;BME280;22411;53.016;18.632;2023-03-25T06:31:23;99452.16;;;7.66;100.00
36380;BME280;22411;53.016;18.632;2023-03-25T06:33:54;99446.41;;;7.74;100.00
36380;BME280;22411;53.016;18.632;2023-03-25T06:36:26;99445.97;;;7.80;100.00
36380;BME280;22411;53.016;18.632;2023-03-25T06:38:53;99457.50;;;7.87;100.00
36380;BME280;22411;53.016;18.632;2023-03-25T06:41:19;99453.50;;;7.94;100.00
36380;BME280;22411;53.016;18.632;2023-03-25T06:43:47;99456.25;;;8.04;100.00
36380;BME280;22411;53.016;18.632;2023-03-25T06:46:14;99453.81;;;8.13;100.00
36380;BME280;22411;53.016;18.632;2023-03-25T06:48:41;99459.91;;;8.24;100.00
36380;BME280;22411;53.016;18.632;2023-03-25T06:51:07;99457.69;;;8.30;100.00
36380;BME280;22411;53.016;18.632;2023-03-25T06:53:33;99452.44;;;8.43;100.00
36380;BME280;22411;53.016;18.632;2023-03-25T06:56:00;99458.34;;;8.56;100.00
36380;BME280;22411;53.016;18.632;2023-03-25T06:58:27;99459.38;;;8.76;100.00
36380;BME280;22411;53.016;18.632;2023-03-25T07:01:00;99462.53;;;9.02;100.00
36380;BME280;22411;53.016;18.632;2023-03-25T07:03:48;99470.34;;;9.34;100.00
36380;BME280;22411;53.016;18.632;2023-03-25T07:06:21;99467.53;;;9.58;100.00
36380;BME280;22411;53.016;18.632;2023-03-25T07:08:50;99473.88;;;9.65;100.00
36380;BME280;22411;53.016;18.632;2023-03-25T07:11:26;99474.06;;;9.74;100.00
36380;BME280;22411;53.016;18.632;2023-03-25T07:13:57;99477.69;;;9.82;100.00
36380;BME280;22411;53.016;18.632;2023-03-25T07:16:23;99474.06;;;9.94;100.00
36380;BME280;22411;53.016;18.632;2023-03-25T07:18:51;99481.91;;;10.04;100.00
36380;BME280;22411;53.016;18.632;2023-03-25T07:21:19;99481.91;;;10.04;100.00
36380;BME280;22411;53.016;18.632;2023-03-25T07:23:47;99469.59;;;10.17;100.00
36380;BME280;22411;53.016;18.632;2023-03-25T07:26:14;99478.75;;;10.21;100.00
36380;BME280;22411;53.016;18.632;2023-03-25T07:28:41;99475.72;;;10.16;100.00
36380;BME280;22411;53.016;18.632;2023-03-25T07:31:09;99476.63;;;10.27;100.00
36380;BME280;22411;53.016;18.632;2023-03-25T07:33:35;99474.09;;;10.36;100.00
36380;BME280;22411;53.016;18.632;2023-03-25T07:36:03;99477.44;;;10.27;100.00
36380;BME280;22411;53.016;18.632;2023-03-25T07:38:29;99488.81;;;10.36;100.00
36380;BME280;22411;53.016;18.632;2023-03-25T07:40:55;99479.34;;;10.25;100.00
36380;BME280;22411;53.016;18.632;2023-03-25T07:43:22;99485.50;;;10.24;100.00
36380;BME280;22411;53.016;18.632;2023-03-25T07:45:48;99479.22;;;10.27;100.00
36380;BME280;22411;53.016;18.632;2023-03-25T07:48:15;99489.25;;;10.20;100.00
36380;BME280;22411;53.016;18.632;2023-03-25T07:50:42;99487.41;;;10.11;100.00
36380;BME280;22411;53.016;18.632;2023-03-25T07:53:10;99486.72;;;10.09;100.00
36380;BME280;22411;53.016;18.632;2023-03-25T07:55:36;99476.38;;;10.09;100.00
36380;BME280;22411;53.016;18.632;2023-03-25T07:58:03;99477.88;;;10.11;100.00
36380;BME280;22411;53.016;18.632;2023-03-25T08:00:29;99484.56;;;10.14;100.00
36380;BME280;22411;53.016;18.632;2023-03-25T08:02:55;99466.59;;;10.12;100.00
36380;BME280;22411;53.016;18.632;2023-03-25T08:05:21;99477.94;;;10.21;100.00
36380;BME280;22411;53.016;18.632;2023-03-25T08:07:50;99485.94;;;10.29;100.00
36380;BME280;22411;53.016;18.632;2023-03-25T08:10:17;99474.91;;;10.37;100.00
36380;BME280;22411;53.016;18.632;2023-03-25T08:12:44;99482.31;;;10.41;100.00
36380;BME280;22411;53.016;18.632;2023-03-25T08:15:11;99470.16;;;10.42;100.00
36380;BME280;22411;53.016;18.632;2023-03-25T08:17:39;99469.22;;;10.43;100.00
36380;BME280;22411;53.016;18.632;2023-03-25T08:20:06;99471.56;;;10.46;100.00
36380;BME280;22411;53.016;18.632;2023-03-25T08:22:33;99472.75;;;10.42;100.00
36380;BME280;22411;53.016;18.632;2023-03-25T08:25:01;99473.56;;;10.42;100.00
36380;BME280;22411;53.016;18.632;2023-03-25T08:27:27;99485.53;;;10.34;100.00
36380;BME280;22411;53.016;18.632;2023-03-25T08:29:53;99472.69;;;10.32;100.00
36380;BME280;22411;53.016;18.632;2023-03-25T08:32:23;99465.13;;;10.40;100.00
36380;BME280;22411;53.016;18.632;2023-03-25T08:34:50;99469.53;;;10.50;100.00
36380;BME280;22411;53.016;18.632;2023-03-25T08:37:17;99464.28;;;10.61;100.00
36380;BME280;22411;53.016;18.632;2023-03-25T08:39:42;99465.63;;;10.65;100.00
36380;BME280;22411;53.016;18.632;2023-03-25T08:42:12;99462.22;;;10.64;100.00
36380;BME280;22411;53.016;18.632;2023-03-25T08:44:38;99459.63;;;10.55;100.00
36380;BME280;22411;53.016;18.632;2023-03-25T08:47:04;99452.19;;;10.40;100.00
36380;BME280;22411;53.016;18.632;2023-03-25T08:49:30;99461.38;;;10.33;100.00
36380;BME280;22411;53.016;18.632;2023-03-25T08:51:57;99470.25;;;10.31;100.00
36380;BME280;22411;53.016;18.632;2023-03-25T08:54:25;99463.09;;;10.23;100.00
36380;BME280;22411;53.016;18.632;2023-03-25T08:56:52;99467.81;;;10.29;100.00
36380;BME280;22411;53.016;18.632;2023-03-25T08:59:18;99470.31;;;10.40;100.00
36380;BME280;22411;53.016;18.632;2023-03-25T09:01:44;99470.66;;;10.57;100.00
36380;BME280;22411;53.016;18.632;2023-03-25T09:04:16;99465.03;;;10.82;100.00
36380;BME280;22411;53.016;18.632;2023-03-25T09:06:46;99461.38;;;10.94;100.00
36380;BME280;22411;53.016;18.632;2023-03-25T09:09:15;99463.19;;;11.23;100.00
36380;BME280;22411;53.016;18.632;2023-03-25T09:11:41;99464.88;;;11.34;100.00
36380;BME280;22411;53.016;18.632;2023-03-25T09:14:07;99461.59;;;11.32;100.00
36380;BME280;22411;53.016;18.632;2023-03-25T09:16:34;99460.06;;;11.19;100.00
36380;BME280;22411;53.016;18.632;2023-03-25T09:19:01;99452.56;;;11.26;100.00
36380;BME280;22411;53.016;18.632;2023-03-25T09:21:27;99467.03;;;11.19;100.00
36380;BME280;22411;53.016;18.632;2023-03-25T09:23:54;99455.63;;;10.91;100.00
36380;BME280;22411;53.016;18.632;2023-03-25T09:26:20;99462.03;;;10.87;100.00
36380;BME280;22411;53.016;18.632;2023-03-25T09:28:46;99455.66;;;11.00;100.00
36380;BME280;22411;53.016;18.632;2023-03-25T09:31:12;99454.16;;;10.98;100.00
36380;BME280;22411;53.016;18.632;2023-03-25T09:33:39;99450.22;;;11.04;100.00
36380;BME280;22411;53.016;18.632;2023-03-25T09:36:06;99458.25;;;11.00;100.00
36380;BME280;22411;53.016;18.632;2023-03-25T09:38:32;99455.78;;;10.99;100.00
36380;BME280;22411;53.016;18.632;2023-03-25T09:41:03;99449.94;;;10.97;100.00
36380;BME280;22411;53.016;18.632;2023-03-25T09:44:15;99457.19;;;11.22;100.00
36380;BME280;22411;53.016;18.632;2023-03-25T09:46:44;99448.06;;;11.47;100.00
36380;BME280;22411;53.016;18.632;2023-03-25T09:49:18;99450.13;;;11.73;100.00
36380;BME280;22411;53.016;18.632;2023-03-25T09:51:47;99448.22;;;11.85;100.00
36380;BME280;22411;53.016;18.632;2023-03-25T09:56:52;99449.44;;;11.90;100.00
36380;BME280;22411;53.016;18.632;2023-03-25T09:59:29;99446.44;;;11.95;100.00
36380;BME280;22411;53.016;18.632;2023-03-25T10:05:23;99451.09;;;11.91;100.00
36380;BME280;22411;53.016;18.632;2023-03-25T10:11:06;99455.19;;;12.03;100.00
36380;BME280;22411;53.016;18.632;2023-03-25T10:14:00;99454.47;;;12.21;100.00
36380;BME280;22411;53.016;18.632;2023-03-25T10:24:58;99439.09;;;12.37;100.00
36380;BME280;22411;53.016;18.632;2023-03-25T10:27:38;99436.22;;;11.84;100.00
36380;BME280;22411;53.016;18.632;2023-03-25T10:30:26;99443.88;;;11.66;100.00
36380;BME280;22411;53.016;18.632;2023-03-25T10:32:59;99443.56;;;11.69;100.00
36380;BME280;22411;53.016;18.632;2023-03-25T10:35:33;99436.88;;;11.66;100.00
36380;BME280;22411;53.016;18.632;2023-03-25T10:38:14;99436.06;;;11.85;100.00
36380;BME280;22411;53.016;18.632;2023-03-25T10:40:45;99416.66;;;11.89;100.00
36380;BME280;22411;53.016;18.632;2023-03-25T10:43:25;99413.38;;;11.97;100.00
36380;BME280;22411;53.016;18.632;2023-03-25T10:48:51;99409.69;;;11.80;100.00
36380;BME280;22411;53.016;18.632;2023-03-25T10:51:25;99401.38;;;11.57;100.00
36380;BME280;22411;53.016;18.632;2023-03-25T10:53:59;99419.53;;;11.47;100.00
36380;BME280;22411;53.016;18.632;2023-03-25T10:57:02;99405.91;;;11.45;100.00
36380;BME280;22411;53.016;18.632;2023-03-25T11:02:14;99411.09;;;11.55;100.00
36380;BME280;22411;53.016;18.632;2023-03-25T11:04:43;99407.22;;;11.59;100.00
36380;BME280;22411;53.016;18.632;2023-03-25T11:07:16;99405.47;;;11.60;100.00
36380;BME280;22411;53.016;18.632;2023-03-25T11:09:45;99414.63;;;11.54;100.00
36380;BME280;22411;53.016;18.632;2023-03-25T11:12:17;99396.34;;;11.46;100.00
36380;BME280;22411;53.016;18.632;2023-03-25T11:14:53;99412.47;;;11.49;100.00
36380;BME280;22411;53.016;18.632;2023-03-25T11:17:20;99410.38;;;11.43;100.00
36380;BME280;22411;53.016;18.632;2023-03-25T11:19:58;99411.91;;;11.46;100.00
36380;BME280;22411;53.016;18.632;2023-03-25T11:22:28;99401.78;;;11.43;100.00
36380;BME280;22411;53.016;18.632;2023-03-25T11:25:02;99403.00;;;11.39;100.00
36380;BME280;22411;53.016;18.632;2023-03-25T11:27:29;99393.88;;;11.35;100.00
36380;BME280;22411;53.016;18.632;2023-03-25T11:30:05;99405.72;;;11.27;100.00
36380;BME280;22411;53.016;18.632;2023-03-25T11:32:39;99386.50;;;11.30;100.00
36380;BME280;22411;53.016;18.632;2023-03-25T11:35:25;99376.41;;;11.46;100.00
36380;BME280;22411;53.016;18.632;2023-03-25T11:38:00;99372.16;;;11.55;100.00
36380;BME280;22411;53.016;18.632;2023-03-25T11:40:28;99386.06;;;11.54;100.00
36380;BME280;22411;53.016;18.632;2023-03-25T11:42:57;99381.84;;;11.53;100.00
36380;BME280;22411;53.016;18.632;2023-03-25T11:45:31;99393.59;;;11.47;100.00
36380;BME280;22411;53.016;18.632;2023-03-25T11:48:07;99386.09;;;11.44;100.00
36380;BME280;22411;53.016;18.632;2023-03-25T11:50:34;99381.16;;;11.51;100.00
36380;BME280;22411;53.016;18.632;2023-03-25T11:53:02;99382.06;;;11.98;100.00
36380;BME280;22411;53.016;18.632;2023-03-25T11:55:34;99372.84;;;12.23;100.00
36380;BME280;22411;53.016;18.632;2023-03-25T11:58:02;99372.97;;;12.22;100.00
36380;BME280;22411;53.016;18.632;2023-03-25T12:00:39;99370.66;;;12.19;100.00
36380;BME280;22411;53.016;18.632;2023-03-25T12:03:21;99369.66;;;12.29;100.00
36380;BME280;22411;53.016;18.632;2023-03-25T12:06:15;99369.88;;;12.46;100.00
36380;BME280;22411;53.016;18.632;2023-03-25T12:08:59;99367.03;;;12.85;100.00
36380;BME280;22411;53.016;18.632;2023-03-25T12:11:34;99360.00;;;13.13;100.00
36380;BME280;22411;53.016;18.632;2023-03-25T12:27:36;99340.44;;;16.90;100.00
36380;BME280;22411;53.016;18.632;2023-03-25T12:35:25;99336.00;;;22.76;65.41
36380;BME280;22411;53.016;18.632;2023-03-25T12:38:15;99320.44;;;24.36;61.42
36380;BME280;22411;53.016;18.632;2023-03-25T12:41:13;99326.72;;;23.98;56.08
36380;BME280;22411;53.016;18.632;2023-03-25T13:01:03;99315.75;;;19.21;74.27
36380;BME280;22411;53.016;18.632;2023-03-25T13:06:55;99318.66;;;17.35;91.29
36380;BME280;22411;53.016;18.632;2023-03-25T13:09:34;99309.75;;;16.44;96.71
36380;BME280;22411;53.016;18.632;2023-03-25T13:12:32;99299.44;;;15.32;100.00
36380;BME280;22411;53.016;18.632;2023-03-25T13:15:13;99301.34;;;14.64;100.00
36380;BME280;22411;53.016;18.632;2023-03-25T13:20:25;99301.66;;;13.59;100.00
36380;BME280;22411;53.016;18.632;2023-03-25T13:22:55;99354.41;;;13.07;100.00
36380;BME280;22411;53.016;18.632;2023-03-25T13:25:34;99334.31;;;12.19;100.00
36380;BME280;22411;53.016;18.632;2023-03-25T13:28:14;99346.91;;;11.09;100.00
36380;BME280;22411;53.016;18.632;2023-03-25T13:30:44;99344.34;;;10.49;100.00
36380;BME280;22411;53.016;18.632;2023-03-25T13:33:15;99333.19;;;9.87;100.00
36380;BME280;22411;53.016;18.632;2023-03-25T13:36:04;99307.22;;;9.68;100.00
36380;BME280;22411;53.016;18.632;2023-03-25T13:38:48;99311.13;;;9.41;100.00
36380;BME280;22411;53.016;18.632;2023-03-25T13:41:25;99295.63;;;9.21;100.00
36380;BME280;22411;53.016;18.632;2023-03-25T13:44:02;99282.31;;;9.04;100.00
36380;BME280;22411;53.016;18.632;2023-03-25T13:46:52;99285.13;;;9.01;100.00
36380;BME280;22411;53.016;18.632;2023-03-25T13:49:26;99269.38;;;9.04;100.00
36380;BME280;22411;53.016;18.632;2023-03-25T13:51:53;99263.19;;;9.16;100.00
36380;BME280;22411;53.016;18.632;2023-03-25T13:54:33;99248.81;;;9.45;100.00
36380;BME280;22411;53.016;18.632;2023-03-25T14:05:23;99277.06;;;12.11;100.00
36380;BME280;22411;53.016;18.632;2023-03-25T14:10:52;99281.78;;;11.97;100.00
36380;BME280;22411;53.016;18.632;2023-03-25T14:13:46;99279.81;;;12.09;100.00
36380;BME280;22411;53.016;18.632;2023-03-25T14:16:18;99276.53;;;12.35;100.00
36380;BME280;22411;53.016;18.632;2023-03-25T14:18:49;99272.16;;;12.08;100.00
36380;BME280;22411;53.016;18.632;2023-03-25T14:23:47;99285.88;;;11.81;100.00
36380;BME280;22411;53.016;18.632;2023-03-25T14:26:16;99287.50;;;11.44;100.00
36380;BME280;22411;53.016;18.632;2023-03-25T14:28:44;99285.09;;;11.23;100.00
36380;BME280;22411;53.016;18.632;2023-03-25T14:31:27;99290.00;;;10.97;100.00
36380;BME280;22411;53.016;18.632;2023-03-25T14:39:09;99300.78;;;11.03;100.00
36380;BME280;22411;53.016;18.632;2023-03-25T14:44:21;99308.56;;;10.83;100.00
36380;BME280;22411;53.016;18.632;2023-03-25T14:46:47;99307.19;;;10.79;100.00
36380;BME280;22411;53.016;18.632;2023-03-25T14:49:21;99308.28;;;10.86;100.00
36380;BME280;22411;53.016;18.632;2023-03-25T14:51:55;99310.19;;;10.84;100.00
36380;BME280;22411;53.016;18.632;2023-03-25T14:54:31;99300.91;;;10.82;100.00
36380;BME280;22411;53.016;18.632;2023-03-25T14:57:14;99304.59;;;10.79;100.00
36380;BME280;22411;53.016;18.632;2023-03-25T14:59:52;99308.97;;;10.88;100.00
36380;BME280;22411;53.016;18.632;2023-03-25T15:02:23;99303.50;;;11.01;100.00
36380;BME280;22411;53.016;18.632;2023-03-25T15:05:12;99299.94;;;11.12;100.00
36380;BME280;22411;53.016;18.632;2023-03-25T15:07:46;99303.75;;;11.17;100.00
36380;BME280;22411;53.016;18.632;2023-03-25T15:10:21;99299.69;;;11.24;100.00